Time;durP1;ratioP1;P1;durP2;ratioP2;P2;SDS_P1;SDS_P2;PMS_P1;PMS_P2;Temp;Humidity;BMP_temperature;BMP_pressure;BME280_temperature;BME280_humidity;BME280_pressure;Samples;Min_cycle;Max_cycle;Signal;HPM_P1;HPM_P2
2024/03/13 00:00:58;;;;;;;;;3.67;3.67;;;;;15.54;100.00;101134.78;2097207;28;46198;-59
2024/03/13 00:01:58;;;;;;;;;5.33;4.33;;;;;15.56;100.00;101135.59;2099048;28;46697;-60
2024/03/13 00:02:59;;;;;;;;;5.00;4.67;;;;;15.55;100.00;101137.41;2098498;28;46426;-60
2024/03/13 00:04:00;;;;;;;;;3.00;3.00;;;;;15.56;100.00;101135.59;2100178;28;46333;-60
2024/03/13 00:05:02;;;;;;;;;3.25;3.25;;;;;15.53;100.00;101133.06;2100643;28;46934;-58
2024/03/13 00:06:03;;;;;;;;;4.50;4.50;;;;;15.54;100.00;101129.44;2099692;28;46862;-58
2024/03/13 00:07:04;;;;;;;;;3.50;3.50;;;;;15.55;100.00;101141.88;2099987;28;46988;-60
2024/03/13 00:08:07;;;;;;;;;4.00;3.00;;;;;15.55;100.00;101142.75;2100619;28;46726;-60
2024/03/13 00:09:08;;;;;;;;;2.50;2.50;;;;;15.55;100.00;101137.41;2100510;28;46567;-60
2024/03/13 00:10:09;;;;;;;;;2.67;2.67;;;;;15.55;100.00;101136.53;2100031;28;46604;-59
2024/03/13 00:11:09;;;;;;;;;3.00;2.50;;;;;15.49;100.00;101134.94;2100109;28;46399;-58
2024/03/13 00:12:16;;;;;;;;;5.00;4.00;;;;;15.53;100.00;101139.28;2101007;28;46422;-58
2024/03/13 00:13:16;;;;;;;;;4.75;4.75;;;;;15.57;100.00;101138.22;2091224;28;46404;-59
2024/03/13 00:14:17;;;;;;;;;2.33;2.33;;;;;15.58;100.00;101137.28;2091601;28;46970;-59
2024/03/13 00:15:17;;;;;;;;;3.00;3.00;;;;;15.59;100.00;101146.19;2089938;28;46565;-58
2024/03/13 00:16:19;;;;;;;;;3.67;3.33;;;;;15.59;100.00;101138.16;2091031;28;46619;-59
2024/03/13 00:17:20;;;;;;;;;3.75;3.75;;;;;15.60;100.00;101143.50;2100186;28;46482;-59
2024/03/13 00:18:20;;;;;;;;;3.75;3.75;;;;;15.61;100.00;101144.38;2098613;28;46575;-60
2024/03/13 00:19:21;;;;;;;;;2.33;2.33;;;;;15.60;100.00;101137.28;2100304;28;46353;-59
2024/03/13 00:20:21;;;;;;;;;3.00;3.00;;;;;15.62;100.00;101139.88;2100226;28;45311;-60
2024/03/13 00:21:21;;;;;;;;;2.33;2.33;;;;;15.60;100.00;101140.81;2100374;28;46195;-60
2024/03/13 00:22:24;;;;;;;;;0.67;0.67;;;;;15.60;100.00;101150.66;2100349;28;46368;-59
2024/03/13 00:23:24;;;;;;;;;3.00;3.00;;;;;15.57;100.00;101143.56;2100681;28;46423;-60
2024/03/13 00:24:26;;;;;;;;;2.33;2.33;;;;;15.59;100.00;101148.88;2100566;28;46027;-61
2024/03/13 00:25:27;;;;;;;;;3.00;2.50;;;;;15.58;100.00;101144.44;2100813;28;47142;-60
2024/03/13 00:26:27;;;;;;;;;3.00;2.00;;;;;15.58;100.00;101150.66;2100144;28;46789;-58
2024/03/13 00:27:27;;;;;;;;;1.33;1.33;;;;;15.56;100.00;101141.84;2100070;28;46559;-58
2024/03/13 00:28:27;;;;;;;;;6.33;4.33;;;;;15.60;100.00;101140.81;2098869;28;46468;-60
2024/03/13 00:29:28;;;;;;;;;3.00;3.00;;;;;15.62;100.00;101142.56;2099652;28;46287;-59
2024/03/13 00:30:29;;;;;;;;;2.67;2.67;;;;;15.62;100.00;101147.91;2099241;28;46413;-59
2024/03/13 00:31:29;;;;;;;;;2.75;2.75;;;;;15.61;100.00;101144.38;2091125;28;46580;-59
2024/03/13 00:32:30;;;;;;;;;2.00;2.00;;;;;15.60;100.00;101142.63;2090653;28;46546;-58
2024/03/13 00:33:30;;;;;;;;;2.00;2.00;;;;;15.62;100.00;101145.25;2104398;28;46548;-59
2024/03/13 00:34:31;;;;;;;;;2.67;2.67;;;;;15.60;100.00;101148.84;2101854;28;46395;-56
2024/03/13 00:35:31;;;;;;;;;3.33;3.33;;;;;15.58;100.00;101139.09;2103242;28;45817;-57
2024/03/13 00:36:31;;;;;;;;;2.00;2.00;;;;;15.58;100.00;101142.66;2103193;28;46951;-59
2024/03/13 00:37:32;;;;;;;;;4.67;2.67;;;;;15.59;100.00;101140.84;2102956;28;46471;-59
2024/03/13 00:38:33;;;;;;;;;2.00;2.00;;;;;15.60;100.00;101139.94;2094829;28;46534;-59
2024/03/13 00:39:34;;;;;;;;;1.00;0.75;;;;;15.59;100.00;101138.16;2093708;28;46742;-59
2024/03/13 00:40:36;;;;;;;;;1.33;1.33;;;;;15.59;100.00;101146.19;2103170;28;46430;-58
2024/03/13 00:41:38;;;;;;;;;2.50;1.50;;;;;15.58;100.00;101131.94;2103124;28;46514;-60
2024/03/13 00:42:39;;;;;;;;;2.00;2.00;;;;;15.58;100.00;101145.31;2094412;28;46429;-60
2024/03/13 00:43:39;;;;;;;;;2.00;2.00;;;;;15.58;100.00;101142.66;2094478;28;46696;-58
2024/03/13 00:44:41;;;;;;;;;2.67;2.00;;;;;15.59;100.00;101140.84;2102628;28;47491;-62
2024/03/13 00:45:41;;;;;;;;;3.75;2.25;;;;;15.61;100.00;101139.00;2103976;28;46329;-62
2024/03/13 00:46:41;;;;;;;;;2.67;1.67;;;;;15.60;100.00;101137.28;2102357;28;46523;-62
2024/03/13 00:47:43;;;;;;;;;4.33;3.00;;;;;15.60;100.00;101143.50;2104326;28;46638;-61
2024/03/13 00:48:43;;;;;;;;;1.00;1.00;;;;;15.61;100.00;101144.38;2102885;28;46654;-61
2024/03/13 00:49:43;;;;;;;;;1.33;1.33;;;;;15.58;100.00;101139.09;2103295;28;46274;-61
2024/03/13 00:50:46;;;;;;;;;2.33;2.33;;;;;15.60;100.00;101139.94;2103319;28;46940;-61
2024/03/13 00:51:46;;;;;;;;;2.50;2.25;;;;;15.62;100.00;101143.44;2102343;28;46407;-61
2024/03/13 00:52:47;;;;;;;;;1.67;1.67;;;;;15.62;100.00;101143.44;2103222;28;46398;-61
2024/03/13 00:53:48;;;;;;;;;2.33;1.33;;;;;15.63;100.00;101145.22;2103618;28;46493;-61
2024/03/13 00:54:48;;;;;;;;;2.75;2.25;;;;;15.63;100.00;101144.34;2081273;28;46859;-61
2024/03/13 00:55:49;;;;;;;;;3.33;1.33;;;;;15.62;100.00;101139.88;2081909;28;46371;-62
2024/03/13 00:56:51;;;;;;;;;4.25;2.50;;;;;15.63;100.00;101139.88;2103891;28;46674;-60
2024/03/13 00:57:51;;;;;;;;;1.75;1.75;;;;;15.64;100.00;101143.41;2103708;28;46895;-61
2024/03/13 00:58:52;;;;;;;;;1.67;1.67;;;;;15.64;100.00;101146.97;2103463;28;46689;-62
2024/03/13 00:59:52;;;;;;;;;3.00;3.00;;;;;15.64;100.00;101144.28;2103379;28;46413;-62
2024/03/13 01:00:52;;;;;;;;;2.67;2.67;;;;;15.64;100.00;101146.09;2103689;28;46114;-62
2024/03/13 01:01:56;;;;;;;;;2.00;2.00;;;;;15.65;100.00;101147.81;2084946;28;46592;-60
2024/03/13 01:02:56;;;;;;;;;1.25;1.25;;;;;15.63;100.00;101152.38;2085973;28;46170;-62
2024/03/13 01:03:59;;;;;;;;;2.33;2.33;;;;;15.63;100.00;101147.88;2104319;28;46325;-60
2024/03/13 01:05:00;;;;;;;;;2.25;2.25;;;;;15.57;100.00;101150.72;2104264;28;46589;-61
2024/03/13 01:06:00;;;;;;;;;3.33;2.67;;;;;15.60;100.00;101150.66;2104372;28;46232;-61
2024/03/13 01:07:01;;;;;;;;;4.00;4.00;;;;;15.56;100.00;101149.84;2103186;28;46225;-61
2024/03/13 01:08:02;;;;;;;;;1.33;1.33;;;;;15.55;100.00;101142.75;2103921;28;46605;-61
2024/03/13 01:09:03;;;;;;;;;2.00;2.00;;;;;15.58;100.00;101149.81;2101815;28;46989;-61
2024/03/13 01:10:05;;;;;;;;;2.25;2.25;;;;;15.57;100.00;101148.94;2104579;28;46884;-62
2024/03/13 01:11:06;;;;;;;;;2.00;2.00;;;;;15.63;100.00;101150.56;2103842;28;47145;-62
2024/03/13 01:12:08;;;;;;;;;2.67;2.67;;;;;15.65;100.00;101145.16;2103987;28;45775;-62
2024/03/13 01:13:08;;;;;;;;;1.00;1.00;;;;;15.63;100.00;101150.56;2104474;28;46530;-61
2024/03/13 01:14:13;;;;;;;;;2.67;1.67;;;;;15.64;100.00;101151.44;2103538;28;46096;-63
2024/03/13 01:15:14;;;;;;;;;3.50;2.00;;;;;15.62;100.00;101153.25;2103808;28;46301;-61
2024/03/13 01:16:15;;;;;;;;;2.25;2.25;;;;;15.64;100.00;101146.97;2104060;28;46537;-62
2024/03/13 01:17:17;;;;;;;;;2.25;2.25;;;;;15.63;100.00;101153.25;2102904;28;46975;-58
2024/03/13 01:18:19;;;;;;;;;2.75;2.75;;;;;15.57;100.00;101150.72;2104574;28;45376;-61
2024/03/13 01:19:20;;;;;;;;;2.25;2.25;;;;;15.56;100.00;101147.19;2103818;28;45535;-60
2024/03/13 01:20:20;;;;;;;;;2.00;2.00;;;;;15.55;100.00;101149.91;2103394;28;46651;-61
2024/03/13 01:21:21;;;;;;;;;2.00;2.00;;;;;15.58;100.00;101158.69;2104310;28;46152;-60
2024/03/13 01:22:22;;;;;;;;;4.00;1.50;;;;;15.57;100.00;101148.94;2103469;28;46366;-62
2024/03/13 01:23:23;;;;;;;;;2.00;2.00;;;;;15.55;100.00;101163.28;2102326;28;46267;-62
2024/03/13 01:24:23;;;;;;;;;1.67;1.67;;;;;15.51;100.00;101161.66;2103696;28;46269;-61
2024/03/13 01:25:24;;;;;;;;;3.67;3.00;;;;;15.54;100.00;101161.53;2101537;28;46193;-62
2024/03/13 01:26:24;;;;;;;;;2.25;2.25;;;;;15.51;100.00;101156.31;2103365;28;45610;-62
2024/03/13 01:27:25;;;;;;;;;3.00;2.00;;;;;15.55;100.00;101157.94;2102008;28;46676;-62
2024/03/13 01:28:25;;;;;;;;;2.33;2.33;;;;;15.54;100.00;101159.75;2102379;28;46888;-62
2024/03/13 01:29:26;;;;;;;;;3.00;3.00;;;;;15.55;100.00;101158.81;2103541;28;45378;-61
2024/03/13 01:30:26;;;;;;;;;2.67;2.67;;;;;15.54;100.00;101157.06;2103212;28;46862;-61
2024/03/13 01:31:27;;;;;;;;;3.33;3.33;;;;;15.52;100.00;101158.06;2103598;28;46596;-61
2024/03/13 01:32:27;;;;;;;;;2.33;2.33;;;;;15.55;100.00;101158.81;2104490;27;46693;-61
2024/03/13 01:33:28;;;;;;;;;3.00;3.00;;;;;15.56;100.00;101157.00;2107960;27;45942;-61
2024/03/13 01:34:29;;;;;;;;;4.00;2.75;;;;;15.55;100.00;101149.91;2107636;27;46389;-61
2024/03/13 01:35:29;;;;;;;;;3.33;3.00;;;;;15.54;100.00;101153.53;2108760;27;46251;-61
2024/03/13 01:38:01;;;;;;;;;3.50;3.50;;;;;15.58;100.00;101157.81;2098327;28;46691;-62
2024/03/13 01:39:02;;;;;;;;;4.00;4.00;;;;;15.61;100.00;101155.06;2104240;27;47053;-61
2024/03/13 01:40:04;;;;;;;;;5.00;4.00;;;;;15.62;100.00;101153.25;2108067;27;46578;-61
2024/03/13 01:54:52;;;;;;;;;2.50;2.50;;;;;15.57;100.00;101156.09;2089208;28;46728;-61
2024/03/13 01:55:57;;;;;;;;;3.00;3.00;;;;;15.52;100.00;101156.25;2096748;27;46878;-62
2024/03/13 01:57:02;;;;;;;;;5.00;5.00;;;;;15.49;100.00;101152.78;2107237;27;46046;-61
2024/03/13 01:59:09;;;;;;;;;3.00;3.00;;;;;15.44;100.00;101154.75;2107873;27;46551;-61
2024/03/13 02:02:49;;;;;;;;;3.75;3.75;;;;;15.44;100.00;101150.28;2106948;27;46290;-63
2024/03/13 02:03:49;;;;;;;;;3.67;3.67;;;;;15.43;100.00;101153.91;2107896;27;46510;-62
2024/03/13 02:04:54;;;;;;;;;5.00;4.00;;;;;15.41;100.00;101153.06;2107677;27;46223;-62
2024/03/13 02:05:56;;;;;;;;;4.00;4.00;;;;;15.37;100.00;101151.41;2108171;27;47141;-61
2024/03/13 02:06:56;;;;;;;;;6.25;4.75;;;;;15.39;100.00;101151.38;2080435;28;46477;-62
2024/03/13 02:07:57;;;;;;;;;4.00;4.00;;;;;15.38;100.00;101158.53;2081165;27;46261;-61
2024/03/13 02:08:58;;;;;;;;;4.67;3.33;;;;;15.40;100.00;101150.47;2107818;27;46622;-62
2024/03/13 02:09:59;;;;;;;;;3.75;3.75;;;;;15.44;100.00;101154.75;2099059;28;46555;-62
2024/03/13 02:11:00;;;;;;;;;5.00;4.25;;;;;15.44;100.00;101150.28;2098472;28;45513;-60
2024/03/13 02:12:00;;;;;;;;;5.00;5.00;;;;;15.45;100.00;101149.34;2108163;27;46630;-61
2024/03/13 02:13:12;;;;;;;;;3.33;3.33;;;;;15.45;100.00;101146.69;2105840;27;46275;-63
2024/03/13 02:14:14;;;;;;;;;5.00;5.00;;;;;15.45;100.00;101144.00;2098808;28;46854;-61
2024/03/13 02:15:15;;;;;;;;;6.00;5.00;;;;;15.44;100.00;101146.75;2098766;27;46315;-61
2024/03/13 02:16:15;;;;;;;;;5.00;3.50;;;;;15.46;100.00;101145.75;2107273;27;46342;-61
2024/03/13 02:17:16;;;;;;;;;4.00;4.00;;;;;15.45;100.00;101146.69;2108373;27;46613;-61
2024/03/13 02:18:23;;;;;;;;;6.00;3.75;;;;;15.47;100.00;101142.16;2107632;27;46201;-61
2024/03/13 02:19:24;;;;;;;;;4.75;4.75;;;;;15.49;100.00;101145.63;2107483;27;46400;-61
2024/03/13 02:20:25;;;;;;;;;4.00;4.00;;;;;15.50;100.00;101141.16;2107785;27;46534;-62
2024/03/13 02:21:25;;;;;;;;;6.00;4.67;;;;;15.53;100.00;101141.06;2107527;27;45602;-62
2024/03/13 02:22:26;;;;;;;;;3.33;3.33;;;;;15.52;100.00;101140.22;2107823;27;46612;-62
2024/03/13 02:23:30;;;;;;;;;3.00;3.00;;;;;15.52;100.00;101136.66;2107487;27;46244;-62
2024/03/13 02:24:31;;;;;;;;;4.00;4.00;;;;;15.53;100.00;101135.72;2107994;27;46911;-60
2024/03/13 02:25:34;;;;;;;;;3.33;3.33;;;;;15.51;100.00;101138.47;2107549;27;46654;-62
2024/03/13 02:26:35;;;;;;;;;2.75;2.75;;;;;15.51;100.00;101138.47;2108222;27;46559;-61
2024/03/13 02:27:36;;;;;;;;;3.33;3.00;;;;;15.52;100.00;101134.84;2107901;27;46315;-60
2024/03/13 02:28:37;;;;;;;;;4.25;3.25;;;;;15.54;100.00;101138.34;2107401;27;46439;-60
2024/03/13 02:29:40;;;;;;;;;2.75;2.75;;;;;15.54;100.00;101137.47;2098166;28;46529;-60
2024/03/13 02:30:41;;;;;;;;;3.75;3.75;;;;;15.51;100.00;101134.91;2099844;27;46507;-62
2024/03/13 02:31:41;;;;;;;;;4.50;3.50;;;;;15.52;100.00;101129.50;2107342;27;46875;-61
2024/03/13 02:32:42;;;;;;;;;3.00;3.00;;;;;15.51;100.00;101130.44;2101104;27;46144;-61
2024/03/13 02:33:43;;;;;;;;;6.00;6.00;;;;;15.50;100.00;101134.03;2095098;28;46496;-60
2024/03/13 02:34:46;;;;;;;;;4.25;3.25;;;;;15.48;100.00;101129.66;2095218;28;46555;-60
2024/03/13 02:35:46;;;;;;;;;4.25;4.25;;;;;15.43;100.00;101131.63;2095148;28;46417;-61
2024/03/13 02:36:47;;;;;;;;;4.67;4.67;;;;;15.46;100.00;101129.69;2095515;28;46766;-62
2024/03/13 02:37:47;;;;;;;;;3.00;2.33;;;;;15.50;100.00;101128.69;2095065;28;45977;-61
2024/03/13 02:38:49;;;;;;;;;4.00;4.00;;;;;15.50;100.00;101130.47;2095480;28;46437;-62
2024/03/13 02:39:49;;;;;;;;;4.75;4.75;;;;;15.49;100.00;101132.25;2095000;28;46453;-62
2024/03/13 02:40:50;;;;;;;;;4.33;4.33;;;;;15.49;100.00;101132.25;2077577;28;45303;-61
2024/03/13 02:41:51;;;;;;;;;5.33;5.33;;;;;15.49;100.00;101136.75;2077458;28;46610;-61
2024/03/13 02:42:53;;;;;;;;;7.00;4.00;;;;;15.49;100.00;101132.25;2095054;28;46680;-62
2024/03/13 02:43:57;;;;;;;;;4.00;4.00;;;;;15.50;100.00;101133.13;2095095;28;46253;-62
2024/03/13 02:44:57;;;;;;;;;4.75;3.25;;;;;15.48;100.00;101132.31;2095257;28;46843;-60
2024/03/13 02:45:57;;;;;;;;;2.67;2.67;;;;;15.42;100.00;101129.88;2095675;28;46790;-61
2024/03/13 02:46:58;;;;;;;;;4.00;3.33;;;;;15.40;100.00;101129.94;2093341;28;45933;-60
2024/03/13 02:47:59;;;;;;;;;5.00;4.00;;;;;15.48;100.00;101129.66;2094422;28;48274;-61
2024/03/13 02:48:59;;;;;;;;;5.00;4.75;;;;;15.46;100.00;101131.50;2094552;28;46678;-61
2024/03/13 02:50:00;;;;;;;;;6.33;5.00;;;;;15.47;100.00;101127.91;2095403;28;46503;-62
2024/03/13 02:51:00;;;;;;;;;4.00;3.67;;;;;15.48;100.00;101126.97;2094647;28;46578;-59
2024/03/13 02:52:00;;;;;;;;;7.00;6.00;;;;;15.48;100.00;101133.19;2094903;28;46349;-61
2024/03/13 02:53:01;;;;;;;;;8.33;5.33;;;;;15.48;100.00;101127.84;2095057;28;46482;-60
2024/03/13 02:54:01;;;;;;;;;3.67;3.67;;;;;15.48;100.00;101133.19;2095048;28;45854;-63
2024/03/13 02:55:02;;;;;;;;;5.00;5.00;;;;;15.48;100.00;101130.53;2094316;28;46598;-60
2024/03/13 02:56:03;;;;;;;;;4.00;4.00;;;;;15.48;100.00;101127.84;2085453;28;46378;-61
2024/03/13 02:57:04;;;;;;;;;4.00;4.00;;;;;15.48;100.00;101129.66;2085723;28;46919;-60
2024/03/13 02:58:04;;;;;;;;;2.33;2.33;;;;;15.47;100.00;101126.09;2095373;28;46643;-61
2024/03/13 02:59:05;;;;;;;;;4.67;3.33;;;;;15.48;100.00;101129.66;2095058;28;46720;-61
2024/03/13 03:00:06;;;;;;;;;4.33;4.33;;;;;15.44;100.00;101123.53;2094292;28;46585;-60
2024/03/13 03:01:06;;;;;;;;;5.00;4.00;;;;;15.44;100.00;101131.56;2068471;28;46565;-62
2024/03/13 03:02:07;;;;;;;;;5.67;4.00;;;;;15.43;100.00;101127.16;2069041;28;46425;-62
2024/03/13 03:03:11;;;;;;;;;2.33;2.33;;;;;15.40;100.00;101127.25;2093279;28;46616;-62
2024/03/13 03:04:11;;;;;;;;;3.25;3.25;;;;;15.38;100.00;101125.56;2094912;28;46453;-62
2024/03/13 03:05:12;;;;;;;;;5.00;4.00;;;;;15.35;100.00;101122.97;2094524;28;46720;-60
2024/03/13 03:06:15;;;;;;;;;3.33;2.33;;;;;15.44;100.00;101131.56;2094677;28;47325;-61
2024/03/13 03:07:16;;;;;;;;;4.00;4.00;;;;;15.46;100.00;101126.16;2094608;28;46974;-59
2024/03/13 03:08:16;;;;;;;;;3.00;3.00;;;;;15.44;100.00;101122.66;2094589;28;46975;-61
2024/03/13 03:09:17;;;;;;;;;4.67;4.00;;;;;15.23;100.00;101127.81;2094955;28;46474;-61
2024/03/13 03:10:17;;;;;;;;;3.33;3.33;;;;;15.43;100.00;101127.16;2085901;28;46231;-61
2024/03/13 03:11:18;;;;;;;;;3.00;3.00;;;;;15.42;100.00;101133.44;2085480;28;46266;-60
2024/03/13 03:12:18;;;;;;;;;4.00;4.00;;;;;15.39;100.00;101127.31;2094823;28;46426;-61
2024/03/13 03:13:18;;;;;;;;;3.67;3.67;;;;;15.38;100.00;101126.44;2094096;28;46332;-62
2024/03/13 03:14:20;;;;;;;;;3.33;3.00;;;;;15.37;100.00;101137.16;2094754;28;46388;-61
2024/03/13 03:15:21;;;;;;;;;3.75;3.75;;;;;15.37;100.00;101140.72;2094422;28;46885;-62
2024/03/13 03:16:21;;;;;;;;;4.00;3.25;;;;;15.17;100.00;101138.75;2094290;28;46683;-62
2024/03/13 03:17:22;;;;;;;;;4.33;3.67;;;;;15.21;100.00;101139.50;2085193;28;46244;-63
2024/03/13 03:18:23;;;;;;;;;5.25;4.75;;;;;15.24;100.00;101137.59;2086598;28;46777;-62
2024/03/13 03:19:23;;;;;;;;;5.00;4.33;;;;;15.20;100.00;101135.09;2095355;28;44959;-63
2024/03/13 03:20:23;;;;;;;;;5.00;4.00;;;;;15.22;100.00;101143.91;2093894;28;45312;-62
2024/03/13 03:21:24;;;;;;;;;5.00;5.00;;;;;15.22;100.00;101144.78;2094485;28;46632;-63
2024/03/13 03:22:24;;;;;;;;;3.00;3.00;;;;;15.21;100.00;101140.38;2094665;28;46277;-62
2024/03/13 03:23:25;;;;;;;;;3.00;3.00;;;;;15.19;100.00;101147.56;2095115;28;46252;-62
2024/03/13 03:24:25;;;;;;;;;3.00;2.00;;;;;15.20;100.00;101143.97;2094602;28;46798;-62
2024/03/13 03:25:28;;;;;;;;;3.00;3.00;;;;;15.21;100.00;101143.06;2094626;28;46072;-61
2024/03/13 03:26:28;;;;;;;;;4.00;3.00;;;;;15.21;100.00;101143.06;2095248;28;46144;-62
2024/03/13 03:27:29;;;;;;;;;3.67;3.67;;;;;15.15;100.00;101145.94;2094873;28;46336;-62
2024/03/13 03:28:29;;;;;;;;;4.00;4.00;;;;;15.16;100.00;101145.03;2094413;28;46664;-61
2024/03/13 03:29:30;;;;;;;;;3.33;3.00;;;;;15.15;100.00;101145.06;2095012;28;46340;-60
2024/03/13 03:30:30;;;;;;;;;4.33;3.67;;;;;15.11;100.00;101146.09;2094736;28;46293;-61
2024/03/13 03:31:30;;;;;;;;;2.33;2.33;;;;;15.16;100.00;101145.03;2086042;28;46730;-61
2024/03/13 03:32:31;;;;;;;;;6.33;5.00;;;;;15.00;100.00;101143.78;2088691;28;46538;-62
2024/03/13 03:33:31;;;;;;;;;6.67;4.00;;;;;15.28;100.00;101141.06;2094857;28;46924;-60
2024/03/13 03:34:32;;;;;;;;;5.00;4.33;;;;;15.21;100.00;101147.53;2094919;28;46334;-62
2024/03/13 03:35:34;;;;;;;;;6.33;4.00;;;;;15.32;100.00;101146.22;2095117;28;46595;-61
2024/03/13 03:36:35;;;;;;;;;4.50;3.75;;;;;15.40;100.00;101145.13;2093768;28;46946;-60
2024/03/13 03:37:38;;;;;;;;;4.00;2.67;;;;;15.22;100.00;101152.81;2094337;28;46393;-63
2024/03/13 03:38:38;;;;;;;;;3.75;3.25;;;;;15.34;100.00;101147.97;2096267;28;46938;-61
2024/03/13 03:39:38;;;;;;;;;3.33;2.33;;;;;15.18;100.00;101150.31;2096264;28;46736;-59
2024/03/13 03:40:38;;;;;;;;;4.00;4.00;;;;;15.22;100.00;101144.78;2096362;28;46537;-61
2024/03/13 03:41:39;;;;;;;;;5.00;4.00;;;;;15.13;100.00;101145.13;2096403;28;46446;-62
2024/03/13 03:42:40;;;;;;;;;4.67;3.67;;;;;15.31;100.00;101149.84;2096239;28;46277;-59
2024/03/13 03:43:40;;;;;;;;;3.00;2.67;;;;;15.28;100.00;101152.63;2096533;28;46225;-61
2024/03/13 03:44:40;;;;;;;;;2.33;2.33;;;;;15.24;100.00;101148.28;2096574;28;46189;-62
2024/03/13 03:45:41;;;;;;;;;4.00;3.00;;;;;15.30;100.00;101152.56;2096602;28;46503;-61
2024/03/13 03:46:41;;;;;;;;;4.33;4.33;;;;;15.35;100.00;101150.59;2096052;28;46258;-61
2024/03/13 03:47:41;;;;;;;;;4.33;4.33;;;;;15.33;100.00;101144.44;2096951;28;46238;-61
2024/03/13 03:48:42;;;;;;;;;4.67;4.67;;;;;15.33;100.00;101147.09;2096599;28;46740;-61
2024/03/13 03:49:42;;;;;;;;;4.00;4.00;;;;;15.29;100.00;101151.69;2096342;28;46280;-61
2024/03/13 03:50:42;;;;;;;;;5.00;4.00;;;;;15.27;100.00;101148.19;2095958;28;46722;-60
2024/03/13 03:51:44;;;;;;;;;5.00;4.67;;;;;15.23;100.00;101145.66;2096041;28;46636;-61
2024/03/13 03:52:47;;;;;;;;;4.50;3.75;;;;;15.32;100.00;101146.22;2093692;28;46849;-61
2024/03/13 03:53:48;;;;;;;;;4.50;4.50;;;;;15.23;100.00;101146.53;2096539;28;46876;-61
2024/03/13 03:54:48;;;;;;;;;5.33;3.33;;;;;15.22;100.00;101142.13;2096314;28;46678;-60
2024/03/13 03:55:48;;;;;;;;;3.00;3.00;;;;;15.26;100.00;101150.94;2095857;28;46448;-60
2024/03/13 03:56:49;;;;;;;;;8.33;6.00;;;;;15.29;100.00;101146.34;2096057;28;46234;-61
2024/03/13 03:57:49;;;;;;;;;4.00;4.00;;;;;15.13;100.00;101144.25;2096277;28;46454;-61
2024/03/13 03:58:50;;;;;;;;;2.67;2.67;;;;;15.19;100.00;101144.03;2096539;28;46283;-61
2024/03/13 03:59:51;;;;;;;;;5.00;4.00;;;;;15.20;100.00;101148.44;2095862;28;46462;-60
2024/03/13 04:00:52;;;;;;;;;3.33;3.00;;;;;15.16;100.00;101149.50;2096028;28;46357;-59
2024/03/13 04:01:52;;;;;;;;;5.00;4.00;;;;;15.08;100.00;101148.88;2096055;28;46838;-60
2024/03/13 04:02:52;;;;;;;;;3.00;3.00;;;;;15.14;100.00;101151.34;2096201;28;46401;-58
2024/03/13 04:03:53;;;;;;;;;3.67;3.67;;;;;15.13;100.00;101150.47;2095784;28;46891;-62
2024/03/13 04:04:53;;;;;;;;;4.00;4.00;;;;;15.10;100.00;101147.00;2095790;28;46278;-60
2024/03/13 04:05:53;;;;;;;;;6.00;5.33;;;;;15.11;100.00;101144.28;2094824;28;46404;-61
2024/03/13 04:06:56;;;;;;;;;4.00;4.00;;;;;15.12;100.00;101153.16;2096172;28;46326;-62
2024/03/13 04:07:56;;;;;;;;;2.25;2.25;;;;;15.13;100.00;101149.59;2095866;28;46426;-62
2024/03/13 04:08:56;;;;;;;;;3.67;3.67;;;;;15.12;100.00;101148.72;2096106;28;46829;-61
2024/03/13 04:09:57;;;;;;;;;5.00;5.00;;;;;15.17;100.00;101148.56;2094548;28;46385;-62
2024/03/13 04:10:58;;;;;;;;;5.00;4.67;;;;;15.13;100.00;101150.47;2096048;28;45933;-62
2024/03/13 04:11:58;;;;;;;;;4.00;4.00;;;;;15.12;100.00;101148.72;2095560;28;46299;-62
2024/03/13 04:12:59;;;;;;;;;3.67;3.00;;;;;15.13;100.00;101154.94;2096007;28;46347;-61
2024/03/13 04:14:01;;;;;;;;;4.25;3.75;;;;;15.11;100.00;101151.44;2095584;28;46951;-62
2024/03/13 04:15:05;;;;;;;;;4.00;4.00;;;;;15.12;100.00;101150.50;2094379;28;46996;-62
2024/03/13 04:16:06;;;;;;;;;3.50;3.25;;;;;15.10;100.00;101147.88;2094716;28;46505;-63
2024/03/13 04:17:09;;;;;;;;;4.50;3.75;;;;;15.09;100.00;101154.16;2095888;28;46596;-64
2024/03/13 04:18:10;;;;;;;;;4.50;4.00;;;;;15.10;100.00;101147.00;2096065;28;46559;-62
2024/03/13 04:19:14;;;;;;;;;2.67;2.67;;;;;15.10;100.00;101147.00;2095963;28;46339;-63
2024/03/13 04:20:20;;;;;;;;;5.00;3.25;;;;;15.15;100.00;101147.75;2095704;28;47312;-63
2024/03/13 04:21:21;;;;;;;;;5.25;3.50;;;;;15.16;100.00;101149.50;2095299;28;46803;-62
2024/03/13 04:22:21;;;;;;;;;4.00;2.00;;;;;15.13;100.00;101144.25;2094941;28;46526;-62
2024/03/13 04:23:21;;;;;;;;;5.33;5.00;;;;;15.23;100.00;101153.69;2095658;28;45966;-62
2024/03/13 04:24:23;;;;;;;;;6.00;4.00;;;;;15.24;100.00;101152.75;2096543;28;46286;-62
2024/03/13 04:25:24;;;;;;;;;5.00;5.00;;;;;15.27;100.00;101152.69;2095886;28;46380;-62
2024/03/13 04:26:24;;;;;;;;;5.25;4.75;;;;;15.27;100.00;101150.00;2094724;28;46327;-62
2024/03/13 04:27:24;;;;;;;;;3.00;3.00;;;;;15.28;100.00;101141.06;2095813;28;46437;-62
2024/03/13 04:28:25;;;;;;;;;5.00;5.00;;;;;15.28;100.00;101149.94;2086998;28;46267;-61
2024/03/13 04:29:25;;;;;;;;;4.00;4.00;;;;;15.30;100.00;101147.22;2095074;28;46423;-62
2024/03/13 04:30:25;;;;;;;;;4.00;4.00;;;;;15.24;100.00;101145.63;2095822;28;46810;-62
2024/03/13 04:31:26;;;;;;;;;5.33;5.00;;;;;15.36;100.00;101144.31;2095878;28;46262;-61
2024/03/13 04:32:26;;;;;;;;;4.00;4.00;;;;;15.49;100.00;101142.97;2096180;28;46257;-61
2024/03/13 04:33:28;;;;;;;;;6.00;5.00;;;;;15.32;100.00;101140.00;2096032;28;46345;-61
2024/03/13 04:34:28;;;;;;;;;3.67;3.00;;;;;15.27;100.00;101150.00;2094038;28;46987;-62
2024/03/13 04:35:28;;;;;;;;;4.33;4.33;;;;;15.28;100.00;101151.75;2080913;28;47499;-62
2024/03/13 04:36:29;;;;;;;;;5.00;4.00;;;;;15.30;100.00;101156.13;2079392;28;46610;-61
2024/03/13 04:37:30;;;;;;;;;2.33;2.00;;;;;15.26;100.00;101142.91;2095383;28;46690;-61
2024/03/13 04:38:31;;;;;;;;;6.25;5.00;;;;;15.24;100.00;101148.28;2095822;28;46243;-60
2024/03/13 04:39:32;;;;;;;;;5.67;5.00;;;;;15.20;100.00;101146.66;2096100;28;46483;-62
2024/03/13 04:40:34;;;;;;;;;5.00;5.00;;;;;15.23;100.00;101149.22;2096114;28;46306;-61
2024/03/13 04:41:39;;;;;;;;;6.25;5.50;;;;;15.27;100.00;101150.00;2095510;28;46328;-60
2024/03/13 04:42:39;;;;;;;;;5.00;4.00;;;;;15.24;100.00;101147.41;2096192;28;45672;-60
2024/03/13 04:43:40;;;;;;;;;4.33;4.33;;;;;15.15;100.00;101147.75;2095209;28;46199;-61
2024/03/13 04:44:40;;;;;;;;;3.67;3.67;;;;;15.20;100.00;101143.09;2096009;28;46704;-61
2024/03/13 04:45:40;;;;;;;;;4.33;4.33;;;;;15.23;100.00;101145.66;2096048;28;46400;-60
2024/03/13 04:46:43;;;;;;;;;4.33;4.33;;;;;15.24;100.00;101150.09;2095783;28;46312;-62
2024/03/13 04:47:43;;;;;;;;;4.75;4.00;;;;;15.27;100.00;101150.88;2094171;28;45601;-62
2024/03/13 04:48:47;;;;;;;;;4.00;4.00;;;;;15.26;100.00;101156.28;2095873;28;46314;-60
2024/03/13 04:49:48;;;;;;;;;4.50;4.50;;;;;15.30;100.00;101155.25;2095561;28;46808;-61
2024/03/13 04:50:48;;;;;;;;;6.67;4.00;;;;;15.25;100.00;101157.22;2095731;28;46456;-63
2024/03/13 04:51:48;;;;;;;;;4.67;4.00;;;;;15.31;100.00;101157.84;2095598;28;46859;-60
2024/03/13 04:52:49;;;;;;;;;3.00;3.00;;;;;15.32;100.00;101153.38;2095903;28;46519;-62
2024/03/13 04:53:49;;;;;;;;;6.67;4.00;;;;;15.35;100.00;101157.75;2095628;28;46256;-61
2024/03/13 04:54:51;;;;;;;;;3.67;3.67;;;;;15.34;100.00;101156.88;2096221;28;46416;-60
2024/03/13 04:55:51;;;;;;;;;4.00;3.00;;;;;15.28;100.00;101149.94;2095828;28;46980;-62
2024/03/13 04:56:52;;;;;;;;;3.67;3.67;;;;;15.32;100.00;101159.59;2095761;28;46511;-60
2024/03/13 04:57:52;;;;;;;;;4.00;4.00;;;;;15.36;100.00;101148.78;2095277;28;46573;-60
2024/03/13 04:58:53;;;;;;;;;3.33;3.33;;;;;15.37;100.00;101154.09;2096014;28;47195;-61
2024/03/13 04:59:53;;;;;;;;;5.33;3.67;;;;;15.35;100.00;101153.28;2094484;28;46226;-59